Flight Track Log - Related Links

Times and Time Zones

All times are in EDT time to prevent confusion due to time zone crossing. See the ENY3614 flight status page for this flight to view local times or setup timezone preferences in your user account.

Time Position Orientation Groundspeed Altitude Reporting Facility
EDT Latitude Longitude Course Direction KTS MPH feet Rate Location/Type
02:10PM 25.4180 -77.1190 264° West  Level FlightAware Approximate
02:11PM 25.4077 -77.2324 264° West  Level FlightAware Approximate
02:11PM 25.5831 -76.8822 265° West 281 323 10,300  Level Miami Center
02:12PM 25.3965 -77.3458 263° West  Level FlightAware Approximate
02:12PM 25.5789 -76.9744 267° West 295 339 12,000  Level Miami Center
02:13PM 25.3831 -77.4588 263° West  Level FlightAware Approximate
02:13PM 25.5739 -77.0742 267° West 319 367 13,500  Level Miami Center
02:14PM 25.3695 -77.5719 262° West  Level FlightAware Approximate
02:14PM 25.5667 -77.1883 266° West 333 383 15,100  Level Miami Center
02:15PM 25.3578 -77.6692 262° West  Level FlightAware Approximate
02:15PM 25.5611 -77.2947 267° West 343 395 16,600  Level Miami Center
02:16PM 25.3749 -77.7663 265° West  Level Estimated
02:16PM 25.5544 -77.4042 266° West 350 403 17,900  Level Miami Center
02:17PM 25.5472 -77.5272 266° West 360 414 19,600 1,488 Climbing Miami Center
02:18PM 25.5400 -77.6403 266° West 364 419 21,000 1,152 Climbing Miami Center
02:19PM 25.5331 -77.7556 266° West 371 427 22,000 484 Climbing Miami Center
02:20PM 25.5244 -77.8925 266° West 402 463 22,000  Level Miami Center
02:21PM 25.5156 -78.0244 266° West 425 489 22,000  Level Miami Center
02:22PM 25.5067 -78.1561 266° West 429 494 22,000  Level Miami Center
02:23PM 25.4975 -78.3028 266° West 432 497 22,000  Level Miami Center
02:24PM 25.4878 -78.4372 265° West 434 499 22,000  Level Miami Center
02:25PM 25.4644 -78.5669 259° West 436 502 22,000  Level Miami Center
02:26PM 25.4100 -78.7036 246° West 438 504 22,000  Level Miami Center
02:27PM 25.3619 -78.8286 247° West 439 505 22,000 -240 Level Miami Center
02:28PM 25.3461 -78.9633 263° West 448 516 21,500 -1,113 Descending Miami Center
02:29PM 25.3564 -79.0986 275° West 446 513 19,700 -1,742 Descending Miami Center
02:30PM 25.3625 -79.2289 273° West 428 493 17,900 -1,742 Descending Miami Center
02:31PM 25.3714 -79.3558 274° West 420 483 16,100 -2,016 Descending Miami Center
02:32PM 25.3800 -79.5158 273° West 398 458 13,600 -1,984 Descending Miami Center
02:33PM 25.3869 -79.6233 274° West 396 456 12,000 -1,150 Descending Miami Center
02:34PM 25.3942 -79.7264 274° West 337 388 11,300 -850 Descending Miami Center
02:35PM 25.4406 -79.8039 304° West 319 367 10,400 -968 Descending Miami Center
02:35PM 25.4433 -79.8072 313° West 317 365 10,300 -1,479 Descending Miami Center
02:36PM 25.4931 -79.8797 307° West 298 343 8,600 -1,232 Descending Miami Center
02:37PM 25.5383 -79.9494 306° West 284 327 8,000 -581 Descending Miami Center
02:37PM 25.5392 -79.9514 295° West 288 331 8,000  Level Miami Center
02:38PM 25.5947 -80.0350 306° West 286 329 8,000  Level Miami Center
02:39PM 25.6303 -80.0928 304° West 284 327 8,000  Level Miami Center
02:39PM 25.6414 -80.1058 313° West 286 329 8,000  Level Miami Center
02:40PM 25.6714 -80.1719 297° West 287 330 8,000  Level Miami Center
02:41PM 25.6753 -80.1831 291° West 285 328 8,000  Level Miami Center
02:41PM 25.6933 -80.2547 286° West 280 322 8,000 -290 Level Miami Center
02:42PM 25.6961 -80.2661 285° West 284 327 7,700 -1,672 Descending Miami Center
02:42PM 25.7092 -80.3344 282° West 269 310 6,300 -1,645 Descending Miami Center
02:43PM 25.7108 -80.3458 279° West 271 312 6,000 -1,869 Descending Miami Center
02:43PM 25.7058 -80.4197 266° West 261 300 4,400 -2,066 Descending Miami Center
02:44PM 25.7047 -80.4397 266° West 259 298 3,900 -1,377 Descending Miami Center
02:44PM 25.7158 -80.4922 283° West 245 282 3,000 -871 Descending Miami Center
02:45PM 25.7319 -80.4964 347° North 251 289 3,000 -109 Level Miami Center
02:45PM 25.7633 -80.4706 37° Northeast 223 257 2,900 -387 Descending Miami Center
02:46PM 25.7747 -80.4539 53° Northeast 221 254 2,600 -1,082 Descending Miami Center
02:46PM 25.7817 -80.4142 79° East 202 232 1,800 -1,161 Descending Miami Center
02:47PM 25.7833 -80.3942 85° East 202 232 1,400 -885 Descending Miami Center
02:47PM 25.7831 -80.3586 90° East 161 185 900 -774 Descending Miami Center
02:48PM 25.7853 -80.3433 81° East 168 193 600 -689 Descending Miami Center
02:48PM 25.7858 -80.3150 89° East 141 162 200 -484 Descending Miami Center
02:49PM 25.7872 -80.2928 86° East 149 171 100 -214 Descending Miami Center

Login

Don't have an account? Register now (free) for customized features, flight alerts, and more!